createdAt,value
2022-12-12T00:01:26.539Z,21.40
2022-12-12T00:03:54.544Z,22.35
2022-12-12T00:06:23.597Z,20.63
2022-12-12T00:08:52.676Z,20.50
2022-12-12T00:11:20.939Z,19.70
2022-12-12T00:13:48.686Z,21.05
2022-12-12T00:16:16.576Z,23.70
2022-12-12T00:18:43.926Z,20.02
2022-12-12T00:21:20.566Z,20.27
2022-12-12T00:23:48.391Z,21.00
2022-12-12T00:26:24.038Z,20.38
2022-12-12T00:28:52.344Z,20.00
2022-12-12T00:31:20.046Z,19.85
2022-12-12T00:33:50.163Z,19.92
2022-12-12T00:36:23.313Z,19.20
2022-12-12T00:38:52.638Z,19.10
2022-12-12T00:41:20.928Z,20.08
2022-12-12T00:43:51.180Z,21.02
2022-12-12T00:46:23.938Z,20.35
2022-12-12T00:48:55.238Z,21.60
2022-12-12T00:51:24.568Z,21.85
2022-12-12T00:53:52.149Z,21.58
2022-12-12T00:56:22.812Z,20.13
2022-12-12T00:58:50.908Z,20.30
2022-12-12T01:01:22.105Z,20.27
2022-12-12T01:03:50.449Z,21.08
2022-12-12T01:06:18.115Z,21.48
2022-12-12T01:08:45.746Z,21.95
2022-12-12T01:11:15.283Z,20.88
2022-12-12T01:13:43.814Z,20.25
2022-12-12T01:16:12.617Z,21.92
2022-12-12T01:18:41.379Z,19.67
2022-12-12T01:21:14.080Z,19.75
2022-12-12T01:23:42.098Z,21.15
2022-12-12T01:26:12.967Z,21.23
2022-12-12T01:28:40.619Z,20.13
2022-12-12T01:31:08.056Z,20.48
2022-12-12T01:33:35.815Z,20.08
2022-12-12T01:36:03.717Z,20.73
2022-12-12T01:38:31.190Z,20.20
2022-12-12T01:40:58.783Z,20.80
2022-12-12T01:43:26.619Z,21.17
2022-12-12T01:46:00.288Z,21.27
2022-12-12T01:48:45.458Z,22.98
2022-12-12T01:51:20.160Z,21.15
2022-12-12T01:53:50.325Z,23.15
2022-12-12T01:56:19.395Z,21.92
2022-12-12T01:58:49.599Z,22.83
2022-12-12T02:01:18.427Z,22.08
2022-12-12T02:03:47.057Z,22.02
2022-12-12T02:06:19.400Z,22.92
2022-12-12T02:08:47.254Z,21.63
2022-12-12T02:11:14.839Z,21.92
2022-12-12T02:13:42.294Z,22.67
2022-12-12T02:16:12.634Z,22.08
2022-12-12T02:19:17.561Z,22.48
2022-12-12T02:21:52.278Z,20.35
2022-12-12T02:24:49.004Z,21.40
2022-12-12T02:27:17.383Z,21.45
2022-12-12T02:29:53.553Z,21.00
2022-12-12T02:32:59.408Z,21.10
2022-12-12T02:35:45.095Z,22.90
2022-12-12T02:38:33.479Z,21.38
2022-12-12T02:41:24.512Z,22.75
2022-12-12T02:43:57.615Z,23.90
2022-12-12T02:46:57.644Z,22.38
2022-12-12T02:49:34.513Z,22.23
2022-12-12T02:52:03.133Z,22.63
2022-12-12T02:54:30.485Z,22.45
2022-12-12T02:57:00.575Z,23.73
2022-12-12T02:59:30.641Z,23.20
2022-12-12T03:02:22.027Z,22.95
2022-12-12T03:05:40.271Z,21.73
2022-12-12T03:08:25.763Z,21.13
2022-12-12T03:11:31.475Z,21.67
2022-12-12T03:14:11.980Z,21.75
2022-12-12T03:16:47.641Z,22.15
2022-12-12T03:19:30.441Z,22.25
2022-12-12T03:22:25.033Z,22.75
2022-12-12T03:25:01.360Z,21.48
2022-12-12T03:27:39.339Z,20.75
2022-12-12T03:30:13.517Z,20.35
2022-12-12T03:32:52.576Z,20.77
2022-12-12T03:35:46.205Z,21.80
2022-12-12T03:38:44.434Z,21.88
2022-12-12T03:41:20.718Z,22.25
2022-12-12T03:44:19.186Z,22.77
2022-12-12T03:46:55.190Z,23.52
2022-12-12T03:49:39.904Z,23.73
2022-12-12T03:52:39.203Z,21.92
2022-12-12T03:55:17.269Z,18.08
2022-12-12T03:58:09.982Z,17.05
2022-12-12T04:00:39.564Z,19.17
2022-12-12T04:03:26.581Z,17.65
2022-12-12T04:06:33.079Z,19.50
2022-12-12T04:09:25.850Z,19.65
2022-12-12T04:12:29.879Z,20.48
2022-12-12T04:15:11.971Z,20.40
2022-12-12T04:17:45.189Z,22.45
2022-12-12T04:20:34.119Z,23.73
2022-12-12T04:23:40.253Z,23.10
2022-12-12T04:26:35.369Z,23.75
2022-12-12T04:29:25.519Z,24.70
2022-12-12T04:32:13.249Z,25.00
2022-12-12T04:34:50.629Z,25.33
2022-12-12T04:37:27.547Z,27.08
2022-12-12T04:39:59.792Z,27.65
2022-12-12T04:42:32.853Z,26.17
2022-12-12T04:45:07.140Z,26.80
2022-12-12T04:47:36.829Z,27.60
2022-12-12T04:50:08.079Z,26.67
2022-12-12T04:52:36.287Z,27.42
2022-12-12T04:55:11.168Z,26.55
2022-12-12T04:57:47.471Z,26.88
2022-12-12T05:00:15.679Z,28.10
2022-12-12T05:02:57.994Z,26.90
2022-12-12T05:05:45.962Z,26.05
2022-12-12T05:08:17.840Z,27.13
2022-12-12T05:10:47.182Z,27.88
2022-12-12T05:13:23.384Z,25.55
2022-12-12T05:15:54.543Z,28.75
2022-12-12T05:18:22.804Z,22.50
2022-12-12T05:20:50.353Z,26.17
2022-12-12T05:23:18.064Z,28.35
2022-12-12T05:25:45.322Z,27.60
2022-12-12T05:28:12.808Z,26.02
2022-12-12T05:30:40.193Z,27.25
2022-12-12T05:33:07.437Z,28.10
2022-12-12T05:35:34.833Z,26.55
2022-12-12T05:38:02.569Z,25.58
2022-12-12T05:40:29.934Z,25.58
2022-12-12T05:42:57.234Z,26.45
2022-12-12T05:45:24.598Z,25.52
2022-12-12T05:47:51.967Z,25.40
2022-12-12T05:50:19.452Z,25.23
2022-12-12T05:52:46.782Z,25.38
2022-12-12T05:55:14.400Z,25.77
2022-12-12T05:57:42.171Z,25.40
2022-12-12T06:00:10.202Z,25.52
2022-12-12T06:02:37.659Z,25.27
2022-12-12T06:05:05.827Z,25.92
2022-12-12T06:07:33.104Z,24.30
2022-12-12T06:10:00.445Z,28.33
2022-12-12T06:12:27.876Z,25.88
2022-12-12T06:14:55.183Z,25.92
2022-12-12T06:17:22.502Z,26.50
2022-12-12T06:19:50.257Z,25.20
2022-12-12T06:22:18.289Z,26.67
2022-12-12T06:24:45.659Z,26.90
2022-12-12T06:27:13.157Z,25.23
2022-12-12T06:29:40.620Z,26.98
2022-12-12T06:32:07.876Z,24.80
2022-12-12T06:34:35.179Z,26.10
2022-12-12T06:37:02.437Z,25.58
2022-12-12T06:39:29.800Z,26.13
2022-12-12T06:41:57.124Z,25.48
2022-12-12T06:44:24.564Z,26.08
2022-12-12T06:46:52.003Z,24.45
2022-12-12T06:49:19.331Z,24.80
2022-12-12T06:51:48.822Z,26.67
2022-12-12T06:54:18.366Z,26.20
2022-12-12T06:56:48.460Z,29.73
2022-12-12T06:59:16.919Z,26.70
2022-12-12T07:01:45.237Z,30.65
2022-12-12T07:04:13.907Z,30.95
2022-12-12T07:06:41.891Z,26.90
2022-12-12T07:09:09.200Z,27.58
2022-12-12T07:11:36.559Z,29.25
2022-12-12T07:14:05.805Z,27.88
2022-12-12T07:16:33.461Z,26.13
2022-12-12T07:19:01.273Z,27.10
2022-12-12T07:21:28.685Z,27.30
2022-12-12T07:23:59.204Z,27.25
2022-12-12T07:26:26.538Z,27.02
2022-12-12T07:28:53.919Z,28.67
2022-12-12T07:31:23.134Z,28.38
2022-12-12T07:33:50.519Z,28.60
2022-12-12T07:36:18.239Z,28.40
2022-12-12T07:38:45.547Z,29.40
2022-12-12T07:41:15.731Z,29.38
2022-12-12T07:43:45.077Z,27.02
2022-12-12T07:46:17.939Z,27.85
2022-12-12T07:48:45.226Z,27.58
2022-12-12T07:51:13.015Z,26.48
2022-12-12T07:53:40.817Z,28.10
2022-12-12T07:56:10.097Z,26.75
2022-12-12T07:58:38.155Z,25.08
2022-12-12T08:01:18.053Z,24.70
2022-12-12T08:03:47.046Z,26.00
2022-12-12T08:06:16.997Z,24.92
2022-12-12T08:08:45.863Z,24.65
2022-12-12T08:11:16.411Z,23.20
2022-12-12T08:13:44.010Z,23.92
2022-12-12T08:16:20.755Z,26.05
2022-12-12T08:18:49.161Z,24.48
2022-12-12T08:21:24.770Z,22.95
2022-12-12T08:23:56.491Z,21.83
2022-12-12T08:26:23.987Z,21.77
2022-12-12T08:28:51.322Z,24.63
2022-12-12T08:31:20.597Z,24.63
2022-12-12T08:33:50.641Z,24.20
2022-12-12T08:36:23.474Z,23.27
2022-12-12T08:38:51.404Z,22.17
2022-12-12T08:41:19.168Z,22.13
2022-12-12T08:43:46.565Z,25.23
2022-12-12T08:46:18.083Z,23.98
2022-12-12T08:48:47.168Z,23.65
2022-12-12T08:51:15.405Z,24.20
2022-12-12T08:53:47.686Z,22.83
2022-12-12T08:56:16.420Z,23.52
2022-12-12T08:58:44.281Z,23.30
2022-12-12T09:01:19.580Z,23.20
2022-12-12T09:03:48.085Z,22.83
2022-12-12T09:06:16.818Z,23.48
2022-12-12T09:08:45.782Z,23.27
2022-12-12T09:11:13.555Z,23.58
2022-12-12T09:13:41.460Z,22.95
2022-12-12T09:16:10.160Z,22.70
2022-12-12T09:18:39.825Z,21.35
2022-12-12T09:21:12.173Z,22.95
2022-12-12T09:23:39.497Z,22.70
2022-12-12T09:26:08.111Z,22.85
2022-12-12T09:28:35.575Z,20.65
2022-12-12T09:31:11.334Z,21.83
2022-12-12T09:33:40.194Z,22.70
2022-12-12T09:36:09.024Z,20.25
2022-12-12T09:38:36.883Z,21.77
2022-12-12T09:41:11.171Z,21.48
2022-12-12T09:44:05.419Z,21.58
2022-12-12T09:46:46.349Z,22.60
2022-12-12T09:49:39.914Z,22.83
2022-12-12T09:52:17.504Z,19.13
2022-12-12T09:54:45.345Z,21.67
2022-12-12T09:57:25.017Z,21.27
2022-12-12T10:00:08.717Z,20.10
2022-12-12T10:02:46.218Z,20.50
2022-12-12T10:05:16.483Z,19.92
2022-12-12T10:07:57.733Z,19.27
2022-12-12T10:10:31.390Z,22.15
2022-12-12T10:13:02.104Z,19.65
2022-12-12T10:15:38.982Z,22.10
2022-12-12T10:18:18.966Z,21.30
2022-12-12T10:20:51.333Z,20.85
2022-12-12T10:23:48.331Z,20.88
2022-12-12T10:26:24.044Z,21.05
2022-12-12T10:28:59.191Z,21.40
2022-12-12T10:31:38.701Z,20.80
2022-12-12T10:34:37.358Z,21.13
2022-12-12T10:37:38.574Z,22.30
2022-12-12T10:40:28.898Z,21.40
2022-12-12T10:43:22.624Z,20.83
2022-12-12T10:45:49.979Z,20.38
2022-12-12T10:48:17.332Z,21.27
2022-12-12T10:50:56.171Z,22.05
2022-12-12T10:53:24.227Z,21.33
2022-12-12T10:55:59.752Z,22.50
2022-12-12T10:58:28.691Z,20.75
2022-12-12T11:01:05.209Z,21.45
2022-12-12T11:03:38.058Z,22.65
2022-12-12T11:06:08.369Z,20.65
2022-12-12T11:08:37.332Z,20.05
2022-12-12T11:11:10.723Z,19.15
2022-12-12T11:13:50.286Z,20.00
2022-12-12T11:16:21.539Z,20.25
2022-12-12T11:18:59.695Z,20.20
2022-12-12T11:21:28.548Z,19.17
2022-12-12T11:23:58.778Z,19.00
2022-12-12T11:26:29.416Z,17.98
2022-12-12T11:29:01.200Z,19.33
2022-12-12T11:31:34.507Z,19.58
2022-12-12T11:34:05.441Z,19.80
2022-12-12T11:36:38.443Z,18.73
2022-12-12T11:39:23.460Z,20.02
2022-12-12T11:42:18.440Z,18.67
2022-12-12T11:44:46.529Z,17.33
2022-12-12T11:47:21.802Z,17.35
2022-12-12T11:49:59.650Z,17.60
2022-12-12T11:52:28.971Z,18.45
2022-12-12T11:54:57.596Z,16.98
2022-12-12T11:57:27.700Z,18.67
2022-12-12T12:00:10.037Z,19.40
2022-12-12T12:03:19.385Z,18.50
2022-12-12T12:06:22.977Z,18.02
2022-12-12T12:09:28.280Z,17.52
2022-12-12T12:12:09.757Z,16.52
2022-12-12T12:15:01.402Z,19.08
2022-12-12T12:20:08.169Z,19.58
2022-12-12T12:22:57.305Z,18.85
2022-12-12T12:25:43.715Z,19.45
2022-12-12T12:28:26.374Z,18.10
2022-12-12T12:31:12.382Z,19.33
2022-12-12T12:34:08.911Z,18.13
2022-12-12T12:36:52.578Z,17.58
2022-12-12T12:39:45.384Z,18.73
2022-12-12T12:42:28.298Z,18.88
2022-12-12T12:45:00.634Z,19.38
2022-12-12T12:47:54.550Z,19.30
2022-12-12T12:50:29.623Z,20.05
2022-12-12T12:52:59.893Z,20.10
2022-12-12T12:55:38.132Z,19.00
2022-12-12T12:58:07.208Z,20.00
2022-12-12T13:00:35.869Z,19.98
2022-12-12T13:03:13.139Z,19.70
2022-12-12T13:05:43.980Z,20.70
2022-12-12T13:08:28.332Z,20.45
2022-12-12T13:11:14.196Z,21.23
2022-12-12T13:13:44.968Z,21.70
2022-12-12T13:16:21.365Z,21.33
2022-12-12T13:19:08.981Z,19.50
2022-12-12T13:21:47.902Z,20.92
2022-12-12T13:24:28.057Z,20.20
2022-12-12T13:27:01.277Z,18.65
2022-12-12T13:29:43.855Z,19.33
2022-12-12T13:32:48.618Z,19.17
2022-12-12T13:35:30.338Z,18.75
2022-12-12T13:37:58.749Z,18.70
2022-12-12T13:40:39.385Z,17.65
2022-12-12T13:43:19.705Z,17.10
2022-12-12T13:45:47.050Z,17.83
2022-12-12T13:48:29.568Z,16.55
2022-12-12T13:51:28.063Z,16.63
2022-12-12T13:54:24.920Z,18.30
2022-12-12T13:56:58.318Z,18.60
2022-12-12T13:59:25.592Z,17.50
2022-12-12T14:01:57.323Z,18.13
2022-12-12T14:04:32.178Z,17.98
2022-12-12T14:07:06.433Z,17.05
2022-12-12T14:09:50.696Z,18.48
2022-12-12T14:12:32.041Z,16.63
2022-12-12T14:15:18.022Z,19.02
2022-12-12T14:17:58.510Z,18.83
2022-12-12T14:20:35.834Z,18.35
2022-12-12T14:23:07.879Z,17.58
2022-12-12T14:25:41.464Z,16.75
2022-12-12T14:28:41.409Z,16.05
2022-12-12T14:31:17.466Z,15.45
2022-12-12T14:34:22.801Z,16.13
2022-12-12T14:37:09.923Z,15.23
2022-12-12T14:40:14.679Z,16.02
2022-12-12T14:43:18.999Z,15.32
2022-12-12T14:45:51.425Z,16.33
2022-12-12T14:48:18.680Z,17.42
2022-12-12T14:51:06.390Z,16.20
2022-12-12T14:53:49.795Z,17.55
2022-12-12T14:56:30.537Z,16.75
2022-12-12T14:59:08.581Z,17.40
2022-12-12T15:01:42.481Z,17.60
2022-12-12T15:04:35.180Z,17.85
2022-12-12T15:07:05.011Z,17.60
2022-12-12T15:09:40.316Z,16.58
2022-12-12T15:12:15.566Z,19.05
2022-12-12T15:14:49.301Z,18.40
2022-12-12T15:17:18.561Z,18.38
2022-12-12T15:19:52.160Z,17.05
2022-12-12T15:22:27.370Z,18.75
2022-12-12T15:24:57.146Z,18.65
2022-12-12T15:27:52.178Z,17.85
2022-12-12T15:30:39.553Z,17.52
2022-12-12T15:33:15.000Z,19.45
2022-12-12T15:35:59.526Z,18.20
2022-12-12T15:38:29.784Z,17.23
2022-12-12T15:41:08.048Z,18.83
2022-12-12T15:43:41.198Z,16.55
2022-12-12T15:46:14.726Z,17.67
2022-12-12T15:48:43.551Z,17.70
2022-12-12T15:51:12.096Z,18.48
2022-12-12T15:53:47.714Z,19.42
2022-12-12T15:56:27.899Z,21.00
2022-12-12T15:59:00.895Z,23.85
2022-12-12T16:01:30.048Z,23.48
2022-12-12T16:04:21.034Z,22.95
2022-12-12T16:06:49.588Z,22.40
2022-12-12T16:09:21.458Z,23.90
2022-12-12T16:14:42.157Z,21.05
2022-12-12T16:17:20.054Z,19.45
2022-12-12T16:19:47.310Z,19.88
2022-12-12T16:22:34.758Z,20.55
2022-12-12T16:25:21.540Z,20.33
2022-12-12T16:27:55.164Z,19.50
2022-12-12T16:30:22.577Z,19.08
2022-12-12T16:32:49.869Z,21.15
2022-12-12T16:35:19.615Z,21.90
2022-12-12T16:37:47.037Z,22.05
2022-12-12T16:40:20.399Z,21.02
2022-12-12T16:43:07.705Z,21.55
2022-12-12T16:45:38.854Z,22.63
2022-12-12T16:48:21.245Z,21.63
2022-12-12T16:50:50.492Z,21.25
2022-12-12T16:53:18.644Z,21.98
2022-12-12T16:55:48.404Z,20.95
2022-12-12T16:58:16.171Z,21.00
2022-12-12T17:00:43.880Z,21.67
2022-12-12T17:03:15.492Z,22.25
2022-12-12T17:05:44.170Z,23.02
2022-12-12T17:08:12.441Z,23.48
2022-12-12T17:10:39.858Z,23.35
2022-12-12T17:13:12.497Z,22.77
2022-12-12T17:15:42.430Z,22.77
2022-12-12T17:18:13.150Z,24.00
2022-12-12T17:20:41.791Z,22.30
2022-12-12T17:23:30.277Z,21.48
2022-12-12T17:26:04.123Z,21.50
2022-12-12T17:28:34.205Z,21.73
2022-12-12T17:31:02.750Z,23.50
2022-12-12T17:33:30.580Z,24.75
2022-12-12T17:36:07.357Z,24.15
2022-12-12T17:38:34.741Z,25.95
2022-12-12T17:41:11.155Z,24.55
2022-12-12T17:43:39.043Z,23.77
2022-12-12T17:46:14.201Z,27.00
2022-12-12T17:48:43.906Z,27.42
2022-12-12T17:51:12.853Z,27.85
2022-12-12T17:53:40.212Z,29.45
2022-12-12T17:56:13.369Z,30.65
2022-12-12T17:58:43.012Z,30.38
2022-12-12T18:01:16.571Z,31.05
2022-12-12T18:03:44.916Z,30.48
2022-12-12T18:06:12.931Z,29.27
2022-12-12T18:08:41.742Z,29.52
2022-12-12T18:11:11.796Z,28.10
2022-12-12T18:13:41.056Z,27.63
2022-12-12T18:16:11.334Z,28.92
2022-12-12T18:18:39.315Z,30.15
2022-12-12T18:21:10.509Z,30.35
2022-12-12T18:23:40.725Z,30.67
2022-12-12T18:26:21.815Z,30.15
2022-12-12T18:28:51.159Z,32.58
2022-12-12T18:31:18.500Z,32.45
2022-12-12T18:33:47.239Z,31.35
2022-12-12T18:36:20.024Z,31.10
2022-12-12T18:38:48.008Z,31.98
2022-12-12T18:41:16.585Z,36.25
2022-12-12T18:43:43.910Z,34.00
2022-12-12T18:46:13.579Z,33.05
2022-12-12T18:48:43.578Z,34.47
2022-12-12T18:51:25.228Z,35.38
2022-12-12T18:53:54.643Z,34.47
2022-12-12T18:56:24.753Z,32.65
2022-12-12T18:58:56.791Z,32.53
2022-12-12T19:01:27.132Z,30.70
2022-12-12T19:03:58.741Z,30.08
2022-12-12T19:06:33.980Z,28.75
2022-12-12T19:09:04.324Z,26.95
2022-12-12T19:11:33.570Z,25.95
2022-12-12T19:14:00.982Z,25.67
2022-12-12T19:16:29.108Z,26.38
2022-12-12T19:18:57.079Z,26.33
2022-12-12T19:21:27.540Z,24.40
2022-12-12T19:23:55.747Z,25.60
2022-12-12T19:26:28.365Z,25.30
2022-12-12T19:29:08.779Z,26.92
2022-12-12T19:31:36.920Z,27.05
2022-12-12T19:34:07.495Z,28.15
2022-12-12T19:36:36.013Z,25.98
2022-12-12T19:39:06.645Z,28.40
2022-12-12T19:41:34.719Z,27.17
2022-12-12T19:44:03.121Z,28.08
2022-12-12T19:46:32.089Z,25.10
2022-12-12T19:49:03.561Z,27.13
2022-12-12T19:51:36.407Z,28.33
2022-12-12T19:54:09.412Z,28.80
2022-12-12T19:56:38.705Z,26.88
2022-12-12T19:59:06.160Z,28.63
2022-12-12T20:01:35.737Z,25.92
2022-12-12T20:04:23.065Z,26.42
2022-12-12T20:06:51.114Z,27.45
2022-12-12T20:09:21.490Z,28.27
2022-12-12T20:11:49.507Z,28.73
2022-12-12T20:14:21.293Z,29.15
2022-12-12T20:16:49.671Z,30.77
2022-12-12T20:19:17.798Z,30.00
2022-12-12T20:22:04.069Z,27.25
2022-12-12T20:24:33.359Z,28.15
2022-12-12T20:27:03.794Z,28.70
2022-12-12T20:29:31.804Z,27.90
2022-12-12T20:32:00.185Z,25.98
2022-12-12T20:34:27.900Z,26.15
2022-12-12T20:36:56.039Z,27.52
2022-12-12T20:39:25.124Z,27.02
2022-12-12T20:41:53.999Z,25.50
2022-12-12T20:44:24.213Z,26.23
2022-12-12T20:46:52.110Z,26.75
2022-12-12T20:49:22.460Z,25.85
2022-12-12T20:51:58.331Z,26.65
2022-12-12T20:54:27.907Z,25.95
2022-12-12T20:56:56.112Z,28.10
2022-12-12T20:59:24.253Z,27.48
2022-12-12T21:01:52.153Z,31.25
2022-12-12T21:04:20.225Z,31.65
2022-12-12T21:06:48.628Z,32.00
2022-12-12T21:09:23.220Z,28.85
2022-12-12T21:11:52.231Z,27.88
2022-12-12T21:14:19.653Z,27.58
2022-12-12T21:16:47.092Z,26.45
2022-12-12T21:19:16.282Z,27.13
2022-12-12T21:21:44.254Z,25.27
2022-12-12T21:24:13.500Z,24.15
2022-12-12T21:26:40.938Z,26.65
2022-12-12T21:29:08.774Z,23.67
2022-12-12T21:31:38.519Z,25.27
2022-12-12T21:34:06.771Z,26.88
2022-12-12T21:36:36.135Z,26.65
2022-12-12T21:39:05.308Z,30.92
2022-12-12T21:41:33.614Z,28.02
2022-12-12T21:44:01.405Z,27.67
2022-12-12T21:46:30.331Z,26.02
2022-12-12T21:49:17.541Z,27.15
2022-12-12T21:51:45.038Z,25.88
2022-12-12T21:54:14.446Z,24.50
2022-12-12T21:56:43.075Z,25.60
2022-12-12T21:59:13.540Z,26.98
2022-12-12T22:01:41.841Z,26.38
2022-12-12T22:04:11.724Z,26.63
2022-12-12T22:06:39.398Z,28.55
2022-12-12T22:09:10.217Z,26.88
2022-12-12T22:11:47.584Z,28.65
2022-12-12T22:14:19.797Z,26.45
2022-12-12T22:16:47.498Z,25.60
2022-12-12T22:19:16.086Z,26.38
2022-12-12T22:21:47.454Z,27.35
2022-12-12T22:24:16.841Z,25.83
2022-12-12T22:26:48.044Z,26.65
2022-12-12T22:29:19.751Z,28.15
2022-12-12T22:31:50.312Z,27.77
2022-12-12T22:34:20.824Z,27.15
2022-12-12T22:36:48.581Z,27.20
2022-12-12T22:39:19.946Z,25.30
2022-12-12T22:41:48.128Z,26.40
2022-12-12T22:44:17.301Z,25.00
2022-12-12T22:46:46.701Z,25.95
2022-12-12T22:49:16.121Z,25.25
2022-12-12T22:51:44.304Z,26.27
2022-12-12T22:54:11.930Z,24.15
2022-12-12T22:56:40.337Z,26.20
2022-12-12T22:59:08.720Z,25.55
2022-12-12T23:01:36.122Z,26.65
2022-12-12T23:04:03.733Z,24.98
2022-12-12T23:06:35.042Z,23.80
2022-12-12T23:09:22.290Z,25.67
2022-12-12T23:11:50.019Z,25.63
2022-12-12T23:14:21.734Z,24.35
2022-12-12T23:16:50.766Z,23.48
2022-12-12T23:19:22.087Z,26.15
2022-12-12T23:21:50.002Z,25.63
2022-12-12T23:24:17.658Z,26.15
2022-12-12T23:26:46.246Z,25.20
2022-12-12T23:29:16.954Z,25.58
2022-12-12T23:31:44.722Z,23.85
2022-12-12T23:34:23.693Z,24.90
2022-12-12T23:36:55.234Z,24.17
2022-12-12T23:39:23.404Z,25.58
2022-12-12T23:41:50.696Z,25.67
2022-12-12T23:44:19.964Z,23.30
2022-12-12T23:46:47.574Z,25.67
2022-12-12T23:49:23.683Z,25.60
2022-12-12T23:51:54.009Z,24.90
2022-12-12T23:54:24.259Z,25.08
2022-12-12T23:56:51.906Z,25.30
2022-12-12T23:59:20.650Z,22.85
